Airfield :
LOGIN :

Register | Disclaimer

   EN    FR    IT 

 










Legend :    VFR   Marginal VFR   IFR   Intensive IFR   Very Intensive IFR
Visi :
Ceiling :
>= 8 km
>= 3000ft
5 to 8 km
1000 to 3000 ft
1500m to 5 km
500 to 1000 ft
800 to 1500m
200 to 500 ft
< 800m
< 200 ft
Symbols :   Thunderstorms  Fog  Heavy snow  Heavy precipitations  Wind > 20 kt
SIGMETs :     Misc.  Thunderstorms  Icing  Turbulence  Mountain Waves  Volcanic Ashes






- Airport Elevation : 56 ft
- IATA code : ILY


EGPI - Islay

CURRENT METAR :
  • 120520Z AUTO 33025KT 300V010 4400 RA BKN016/// 08/07 Q0992

EXPIRED METARs :
  • 120450Z AUTO 33017KT 300V360 2800 +RA FEW021/// 08/07 Q0991
  • 120420Z AUTO 33016KT 300V360 9999 SCT018/// 08/07 Q0991 RERA
  • 120350Z AUTO 31023KT 7000 -RA FEW030/// BKN036/// 08/07 Q0991
  • 120320Z AUTO 32027G39KT 9999 BKN011/// 07/06 Q0991 RERA
  • 120250Z AUTO 31029G39KT 1900 RA FEW013/// BKN020/// 07/06 Q0991

TAF TAF EGPI
Valid from the 12 at 06:00 until the 12 at 15:00 UTC


120500Z 1206/1215 33019KT 9999 SCT020
TEMPO 1206/1215 6000 RA BKN012
TEMPO 1206/1208 32024G36KT
PROB30
TEMPO 1206/1210 3000 +SHRA BKN009



MET'MAP, your aeronautical weather chart ! - Copyright ORBIFLY December 2007 - Disclaimer

ORBIFLY MET'MAP TEAM :

Programming & Development : Alexandra Zaïnal
Concept & Development : Baudouin d'Aumeries
Co-Development & Prog : Marc-Olivier Méhu
Technical & hardware support : Manuel Goepfert

Contact : metmap@orbifly.com




SOURCES & CREDITS :

   NOAA